createdAt,value
2022-08-26T00:01:53.246Z,1.80
2022-08-26T00:04:23.533Z,3.25
2022-08-26T00:06:51.529Z,1.75
2022-08-26T00:09:19.161Z,1.92
2022-08-26T00:11:47.182Z,2.60
2022-08-26T00:14:16.430Z,1.65
2022-08-26T00:16:48.093Z,1.35
2022-08-26T00:19:18.329Z,1.00
2022-08-26T00:21:48.640Z,0.80
2022-08-26T00:24:18.927Z,1.23
2022-08-26T00:26:46.509Z,1.52
2022-08-26T00:29:14.029Z,1.25
2022-08-26T00:31:42.831Z,1.85
2022-08-26T00:34:14.170Z,2.03
2022-08-26T00:36:43.492Z,1.48
2022-08-26T00:39:11.385Z,2.55
2022-08-26T00:41:40.486Z,0.63
2022-08-26T00:44:10.367Z,0.98
2022-08-26T00:46:47.185Z,1.42
2022-08-26T00:49:22.670Z,2.10
2022-08-26T00:51:58.953Z,2.90
2022-08-26T00:54:32.974Z,1.30
2022-08-26T00:57:08.667Z,1.45
2022-08-26T00:59:47.132Z,2.17
2022-08-26T01:02:19.918Z,1.80
2022-08-26T01:04:55.495Z,1.60
2022-08-26T01:07:25.363Z,0.80
2022-08-26T01:09:52.996Z,1.92
2022-08-26T01:12:22.157Z,0.80
2022-08-26T01:14:50.203Z,1.30
2022-08-26T01:17:17.715Z,0.75
2022-08-26T01:20:06.958Z,0.50
2022-08-26T01:22:50.549Z,2.00
2022-08-26T01:25:21.072Z,0.85
2022-08-26T01:27:49.269Z,1.38
2022-08-26T01:30:18.637Z,1.10
2022-08-26T01:32:48.848Z,1.52
2022-08-26T01:35:16.182Z,0.80
2022-08-26T01:37:43.803Z,2.60
2022-08-26T01:40:18.964Z,2.03
2022-08-26T01:42:46.884Z,1.35
2022-08-26T01:45:28.392Z,1.38
2022-08-26T01:47:59.139Z,0.82
2022-08-26T01:50:33.361Z,1.05
2022-08-26T01:53:06.303Z,1.50
2022-08-26T01:55:34.424Z,0.63
2022-08-26T01:58:06.580Z,1.63
2022-08-26T02:00:35.334Z,1.08
2022-08-26T02:03:17.680Z,0.82
2022-08-26T02:06:09.298Z,1.60
2022-08-26T02:08:48.091Z,1.55
2022-08-26T02:11:18.563Z,2.05
2022-08-26T02:14:09.761Z,1.33
2022-08-26T02:16:44.300Z,1.17
2022-08-26T02:19:33.093Z,0.95
2022-08-26T02:22:04.731Z,2.38
2022-08-26T02:24:53.127Z,0.82
2022-08-26T02:27:32.477Z,0.40
2022-08-26T02:30:14.784Z,1.58
2022-08-26T02:32:44.765Z,1.23
2022-08-26T02:35:20.002Z,0.80
2022-08-26T02:37:50.075Z,0.70
2022-08-26T02:40:21.666Z,2.05
2022-08-26T02:42:49.236Z,1.80
2022-08-26T02:45:23.360Z,0.90
2022-08-26T02:47:52.473Z,0.60
2022-08-26T02:50:20.465Z,0.75
2022-08-26T02:52:48.510Z,2.63
2022-08-26T02:55:16.872Z,0.88
2022-08-26T02:57:44.563Z,1.15
2022-08-26T03:00:15.219Z,1.83
2022-08-26T03:02:42.659Z,0.60
2022-08-26T03:05:11.365Z,0.73
2022-08-26T03:07:39.196Z,0.88
2022-08-26T03:10:08.778Z,2.40
2022-08-26T03:12:37.020Z,1.67
2022-08-26T03:15:16.621Z,1.75
2022-08-26T03:17:49.148Z,0.85
2022-08-26T03:20:18.213Z,2.53
2022-08-26T03:22:46.541Z,1.38
2022-08-26T03:25:15.976Z,1.00
2022-08-26T03:27:43.339Z,2.58
2022-08-26T03:30:31.666Z,0.77
2022-08-26T03:33:00.966Z,1.42
2022-08-26T03:35:28.326Z,0.63
2022-08-26T03:37:55.986Z,0.93
2022-08-26T03:40:23.759Z,1.15
2022-08-26T03:42:56.355Z,0.65
2022-08-26T03:45:23.629Z,0.77
2022-08-26T03:47:51.968Z,1.10
2022-08-26T03:50:24.332Z,0.90
2022-08-26T03:52:53.403Z,1.88
2022-08-26T03:55:25.449Z,1.77
2022-08-26T03:57:54.513Z,1.55
2022-08-26T04:00:22.949Z,1.60
2022-08-26T04:02:53.190Z,1.35
2022-08-26T04:05:22.769Z,2.60
2022-08-26T04:07:50.838Z,1.45
2022-08-26T04:10:19.457Z,1.08
2022-08-26T04:12:47.797Z,1.38
2022-08-26T04:15:16.276Z,0.90
2022-08-26T04:17:45.347Z,1.80
2022-08-26T04:20:17.150Z,1.40
2022-08-26T04:22:45.636Z,1.08
2022-08-26T04:25:13.716Z,2.58
2022-08-26T04:27:41.212Z,0.82
2022-08-26T04:30:09.664Z,0.70
2022-08-26T04:32:37.507Z,1.23
2022-08-26T04:35:06.449Z,0.60
2022-08-26T04:37:33.973Z,0.45
2022-08-26T04:40:01.363Z,1.48
2022-08-26T04:42:29.941Z,1.30
2022-08-26T04:44:57.288Z,0.80
2022-08-26T04:47:27.153Z,1.05
2022-08-26T04:49:58.235Z,2.75
2022-08-26T04:52:25.548Z,1.77
2022-08-26T04:54:55.463Z,0.50
2022-08-26T04:57:23.479Z,1.75
2022-08-26T04:59:50.739Z,1.50
2022-08-26T05:02:18.122Z,0.95
2022-08-26T05:04:45.434Z,1.33
2022-08-26T05:07:12.901Z,0.80
2022-08-26T05:09:41.275Z,0.50
2022-08-26T05:12:09.653Z,1.50
2022-08-26T05:14:37.116Z,2.47
2022-08-26T05:17:04.736Z,1.88
2022-08-26T05:19:32.844Z,2.13
2022-08-26T05:22:00.200Z,1.45
2022-08-26T05:24:27.497Z,1.05
2022-08-26T05:26:54.771Z,2.70
2022-08-26T05:29:24.108Z,0.82
2022-08-26T05:31:53.394Z,2.50
2022-08-26T05:34:23.372Z,1.55
2022-08-26T05:36:53.200Z,5.50
2022-08-26T05:39:23.450Z,11.70
2022-08-26T05:41:51.216Z,7.15
2022-08-26T05:44:20.982Z,7.85
2022-08-26T05:46:49.677Z,8.30
2022-08-26T05:49:18.698Z,8.23
2022-08-26T05:51:47.615Z,4.70
2022-08-26T05:54:21.274Z,7.38
2022-08-26T05:56:51.120Z,5.18
2022-08-26T05:59:24.397Z,4.80
2022-08-26T06:01:54.607Z,6.65
2022-08-26T06:04:23.017Z,7.93
2022-08-26T06:06:53.986Z,6.10
2022-08-26T06:09:21.437Z,8.75
2022-08-26T06:11:48.837Z,9.75
2022-08-26T06:14:17.822Z,8.65
2022-08-26T06:16:45.888Z,10.18
2022-08-26T06:19:15.649Z,9.20
2022-08-26T06:21:47.282Z,11.10
2022-08-26T06:24:37.600Z,12.68
2022-08-26T06:27:09.514Z,10.30
2022-08-26T06:29:38.739Z,7.10
2022-08-26T06:32:06.829Z,11.70
2022-08-26T06:34:34.242Z,13.95
2022-08-26T06:37:02.697Z,9.40
2022-08-26T06:39:31.715Z,8.88
2022-08-26T06:42:00.135Z,10.70
2022-08-26T06:44:27.820Z,9.43
2022-08-26T06:46:55.389Z,11.35
2022-08-26T06:49:27.406Z,5.40
2022-08-26T06:51:58.084Z,9.07
2022-08-26T06:54:26.964Z,8.25
2022-08-26T06:56:56.797Z,6.93
2022-08-26T06:59:24.604Z,4.13
2022-08-26T07:01:52.361Z,5.40
2022-08-26T07:04:23.180Z,7.13
2022-08-26T07:06:53.092Z,5.70
2022-08-26T07:09:23.114Z,4.22
2022-08-26T07:11:51.592Z,3.92
2022-08-26T07:14:21.376Z,5.82
2022-08-26T07:16:50.607Z,4.50
2022-08-26T07:19:30.607Z,4.13
2022-08-26T07:22:02.109Z,5.07
2022-08-26T07:24:29.709Z,4.78
2022-08-26T07:27:05.961Z,3.17
2022-08-26T07:29:34.368Z,4.07
2022-08-26T07:32:02.210Z,2.58
2022-08-26T07:34:32.164Z,6.60
2022-08-26T07:37:00.738Z,3.60
2022-08-26T07:39:31.544Z,5.32
2022-08-26T07:42:07.506Z,4.57
2022-08-26T07:44:36.582Z,3.80
2022-08-26T07:47:03.884Z,3.95
2022-08-26T07:49:38.470Z,3.38
2022-08-26T07:52:06.807Z,2.63
2022-08-26T07:54:34.089Z,2.95
2022-08-26T07:57:01.543Z,2.88
2022-08-26T07:59:32.654Z,2.60
2022-08-26T08:02:00.680Z,3.00
2022-08-26T08:04:28.184Z,3.15
2022-08-26T08:06:55.929Z,4.40
2022-08-26T08:09:24.288Z,2.97
2022-08-26T08:11:53.009Z,4.07
2022-08-26T08:14:22.349Z,3.08
2022-08-26T08:16:51.110Z,3.08
2022-08-26T08:19:23.773Z,1.52
2022-08-26T08:21:51.533Z,2.08
2022-08-26T08:24:19.639Z,2.53
2022-08-26T08:26:47.859Z,2.25
2022-08-26T08:29:15.098Z,1.50
2022-08-26T08:31:56.948Z,1.75
2022-08-26T08:34:28.304Z,3.13
2022-08-26T08:36:57.146Z,1.90
2022-08-26T08:39:26.236Z,2.40
2022-08-26T08:42:10.992Z,2.90
2022-08-26T08:44:44.409Z,1.52
2022-08-26T08:47:33.957Z,1.98
2022-08-26T08:50:29.003Z,1.48
2022-08-26T08:55:32.342Z,1.48
2022-08-26T08:58:07.848Z,1.52
2022-08-26T09:00:57.862Z,3.08
2022-08-26T09:03:50.589Z,2.03
2022-08-26T09:06:20.365Z,3.17
2022-08-26T09:08:50.673Z,2.15
2022-08-26T09:11:20.170Z,1.77
2022-08-26T09:13:53.532Z,4.00
2022-08-26T09:16:23.748Z,2.83
2022-08-26T09:19:14.521Z,1.67
2022-08-26T09:24:14.198Z,3.42
2022-08-26T09:26:47.430Z,3.60
2022-08-26T09:29:25.530Z,1.45
2022-08-26T09:32:33.036Z,5.80
2022-08-26T09:35:07.979Z,3.97
2022-08-26T09:37:40.425Z,2.90
2022-08-26T09:40:17.399Z,1.67
2022-08-26T09:42:44.856Z,2.45
2022-08-26T09:45:13.820Z,2.60
2022-08-26T09:47:54.190Z,2.30
2022-08-26T09:50:32.314Z,1.92
2022-08-26T09:53:30.282Z,2.13
2022-08-26T09:56:17.299Z,1.58
2022-08-26T09:58:47.350Z,1.40
2022-08-26T10:01:23.718Z,1.27
2022-08-26T10:03:51.947Z,1.13
2022-08-26T10:06:26.555Z,2.20
2022-08-26T10:08:59.085Z,1.10
2022-08-26T10:11:38.258Z,1.77
2022-08-26T10:14:15.285Z,1.40
2022-08-26T10:16:59.549Z,2.15
2022-08-26T10:19:41.622Z,1.50
2022-08-26T10:22:55.315Z,1.45
2022-08-26T10:25:34.433Z,1.55
2022-08-26T10:28:06.460Z,1.75
2022-08-26T10:31:18.213Z,2.40
2022-08-26T10:33:47.472Z,1.20
2022-08-26T10:36:52.331Z,1.42
2022-08-26T10:39:46.242Z,4.22
2022-08-26T10:42:42.804Z,1.08
2022-08-26T10:45:19.775Z,1.33
2022-08-26T10:47:59.184Z,1.75
2022-08-26T10:50:53.054Z,1.20
2022-08-26T10:53:25.417Z,1.02
2022-08-26T10:56:36.911Z,1.40
2022-08-26T10:59:31.615Z,1.58
2022-08-26T11:02:24.693Z,0.75
2022-08-26T11:05:03.083Z,1.25
2022-08-26T11:07:39.296Z,1.65
2022-08-26T11:10:20.427Z,1.60
2022-08-26T11:12:56.932Z,1.00
2022-08-26T11:15:29.188Z,1.50
2022-08-26T11:18:00.315Z,1.40
2022-08-26T11:20:42.144Z,1.13
2022-08-26T11:23:27.129Z,0.63
2022-08-26T11:26:09.459Z,1.05
2022-08-26T11:28:47.768Z,2.50
2022-08-26T11:31:24.465Z,1.23
2022-08-26T11:34:08.865Z,3.40
2022-08-26T11:36:38.578Z,3.67
2022-08-26T11:39:36.879Z,2.20
2022-08-26T11:42:20.269Z,1.10
2022-08-26T11:44:49.095Z,1.48
2022-08-26T11:47:26.716Z,0.57
2022-08-26T11:50:17.492Z,1.80
2022-08-26T11:52:53.468Z,0.95
2022-08-26T11:55:20.951Z,1.23
2022-08-26T11:57:54.782Z,0.98
2022-08-26T12:00:31.386Z,0.70
2022-08-26T12:03:06.664Z,0.60
2022-08-26T12:05:43.464Z,2.45
2022-08-26T12:08:16.266Z,1.48
2022-08-26T12:10:43.759Z,0.77
2022-08-26T12:13:22.592Z,1.50
2022-08-26T12:15:58.326Z,1.50
2022-08-26T12:18:30.241Z,3.10
2022-08-26T12:21:00.696Z,5.88
2022-08-26T12:23:40.342Z,3.20
2022-08-26T12:26:31.120Z,2.00
2022-08-26T12:29:10.852Z,2.20
2022-08-26T12:31:48.106Z,4.80
2022-08-26T12:34:17.732Z,1.65
2022-08-26T12:36:53.998Z,2.45
2022-08-26T12:39:36.544Z,1.38
2022-08-26T12:42:21.527Z,2.88
2022-08-26T12:45:06.472Z,1.40
2022-08-26T12:47:45.894Z,2.58
2022-08-26T12:50:20.795Z,2.60
2022-08-26T12:53:01.729Z,2.05
2022-08-26T12:55:37.838Z,1.35
2022-08-26T12:58:11.140Z,1.70
2022-08-26T13:00:41.364Z,2.65
2022-08-26T13:03:33.784Z,0.98
2022-08-26T13:06:26.243Z,4.53
2022-08-26T13:09:05.663Z,2.15
2022-08-26T13:11:55.703Z,1.23
2022-08-26T13:14:24.683Z,1.02
2022-08-26T13:16:53.143Z,1.33
2022-08-26T13:19:25.524Z,1.05
2022-08-26T13:21:58.448Z,2.13
2022-08-26T13:24:25.684Z,2.47
2022-08-26T13:26:53.115Z,0.88
2022-08-26T13:29:20.680Z,1.00
2022-08-26T13:31:48.341Z,2.13
2022-08-26T13:34:19.435Z,1.55
2022-08-26T13:36:48.730Z,0.47
2022-08-26T13:39:17.342Z,1.60
2022-08-26T13:41:46.245Z,0.98
2022-08-26T13:44:13.780Z,1.52
2022-08-26T13:46:41.429Z,1.27
2022-08-26T13:49:09.357Z,1.17
2022-08-26T13:51:37.640Z,1.23
2022-08-26T13:54:05.380Z,1.17
2022-08-26T13:56:33.547Z,1.75
2022-08-26T13:59:02.088Z,1.25
2022-08-26T14:01:31.467Z,1.73
2022-08-26T14:03:58.883Z,1.92
2022-08-26T14:06:26.333Z,0.45
2022-08-26T14:08:53.688Z,0.93
2022-08-26T14:11:22.321Z,0.88
2022-08-26T14:13:50.317Z,0.82
2022-08-26T14:16:33.307Z,1.08
2022-08-26T14:19:02.147Z,2.33
2022-08-26T14:21:33.367Z,1.15
2022-08-26T14:24:01.191Z,1.52
2022-08-26T14:26:29.901Z,0.70
2022-08-26T14:29:03.775Z,0.95
2022-08-26T14:31:33.012Z,0.98
2022-08-26T14:34:04.016Z,1.27
2022-08-26T14:36:32.353Z,1.15
2022-08-26T14:39:09.201Z,1.08
2022-08-26T14:41:54.159Z,0.88
2022-08-26T14:44:31.147Z,1.98
2022-08-26T14:47:02.099Z,1.17
2022-08-26T14:49:31.097Z,0.70
2022-08-26T14:51:58.412Z,0.88
2022-08-26T14:54:26.063Z,1.08
2022-08-26T14:57:01.747Z,1.40
2022-08-26T14:59:51.450Z,1.13
2022-08-26T15:02:32.668Z,1.05
2022-08-26T15:05:04.419Z,1.35
2022-08-26T15:07:31.786Z,2.75
2022-08-26T15:09:59.096Z,1.42
2022-08-26T15:12:26.700Z,1.63
2022-08-26T15:14:54.028Z,0.50
2022-08-26T15:17:21.340Z,0.70
2022-08-26T15:19:48.654Z,1.65
2022-08-26T15:22:16.093Z,0.88
2022-08-26T15:24:43.361Z,0.63
2022-08-26T15:27:10.868Z,1.92
2022-08-26T15:29:38.401Z,1.73
2022-08-26T15:32:05.949Z,1.33
2022-08-26T15:34:33.578Z,0.90
2022-08-26T15:37:00.803Z,1.10
2022-08-26T15:39:28.381Z,0.98
2022-08-26T15:41:56.186Z,2.22
2022-08-26T15:44:25.249Z,1.02
2022-08-26T15:46:58.263Z,0.95
2022-08-26T15:49:26.268Z,0.83
2022-08-26T15:51:53.601Z,1.27
2022-08-26T15:54:22.970Z,1.02
2022-08-26T15:56:52.441Z,1.65
2022-08-26T15:59:21.482Z,1.00
2022-08-26T16:01:48.920Z,1.48
2022-08-26T16:04:17.559Z,0.77
2022-08-26T16:06:50.217Z,1.17
2022-08-26T16:09:18.609Z,1.30
2022-08-26T16:11:45.881Z,1.20
2022-08-26T16:14:13.115Z,0.60
2022-08-26T16:16:41.555Z,0.82
2022-08-26T16:19:09.317Z,1.88
2022-08-26T16:21:37.226Z,1.35
2022-08-26T16:24:05.776Z,0.82
2022-08-26T16:26:34.815Z,2.15
2022-08-26T16:29:04.440Z,0.70
2022-08-26T16:31:31.756Z,1.35
2022-08-26T16:33:59.114Z,0.95
2022-08-26T16:36:26.740Z,2.15
2022-08-26T16:38:56.397Z,0.95
2022-08-26T16:41:26.840Z,1.70
2022-08-26T16:43:54.804Z,2.42
2022-08-26T16:46:25.695Z,0.70
2022-08-26T16:48:55.942Z,1.02
2022-08-26T16:51:26.878Z,2.42
2022-08-26T16:53:56.257Z,0.70
2022-08-26T16:56:27.718Z,1.70
2022-08-26T16:59:02.504Z,0.93
2022-08-26T17:01:30.062Z,1.48
2022-08-26T17:03:57.637Z,1.65
2022-08-26T17:06:24.947Z,1.25
2022-08-26T17:08:53.025Z,2.55
2022-08-26T17:11:20.441Z,1.13
2022-08-26T17:13:47.709Z,1.27
2022-08-26T17:16:15.745Z,1.60
2022-08-26T17:18:43.179Z,0.70
2022-08-26T17:21:13.498Z,1.25
2022-08-26T17:23:42.861Z,0.82
2022-08-26T17:26:12.065Z,1.77
2022-08-26T17:28:39.619Z,1.60
2022-08-26T17:31:08.212Z,0.93
2022-08-26T17:33:35.563Z,1.08
2022-08-26T17:36:07.677Z,1.52
2022-08-26T17:38:35.754Z,1.08
2022-08-26T17:41:06.307Z,1.00
2022-08-26T17:43:34.244Z,1.95
2022-08-26T17:46:06.928Z,1.73
2022-08-26T17:48:36.225Z,4.55
2022-08-26T17:51:12.494Z,6.07
2022-08-26T17:53:41.306Z,11.60
2022-08-26T17:56:10.261Z,5.63
2022-08-26T17:58:38.036Z,10.57
2022-08-26T18:01:06.353Z,16.25
2022-08-26T18:03:35.071Z,9.50
2022-08-26T18:06:02.557Z,6.57
2022-08-26T18:08:29.790Z,5.40
2022-08-26T18:10:57.060Z,6.18
2022-08-26T18:13:24.324Z,6.28
2022-08-26T18:15:51.604Z,8.00
2022-08-26T18:18:19.031Z,8.63
2022-08-26T18:20:46.806Z,11.48
2022-08-26T18:23:19.855Z,15.65
2022-08-26T18:25:47.107Z,8.20
2022-08-26T18:28:14.414Z,9.45
2022-08-26T18:30:45.071Z,6.55
2022-08-26T18:33:12.770Z,4.82
2022-08-26T18:35:44.970Z,6.65
2022-08-26T18:38:14.263Z,5.68
2022-08-26T18:40:44.882Z,5.88
2022-08-26T18:43:12.232Z,5.88
2022-08-26T18:45:39.514Z,5.22
2022-08-26T18:48:07.085Z,7.25
2022-08-26T18:50:37.588Z,7.15
2022-08-26T18:53:04.931Z,6.88
2022-08-26T18:55:32.427Z,5.60
2022-08-26T18:57:59.996Z,4.35
2022-08-26T19:00:27.612Z,13.13
2022-08-26T19:02:56.096Z,25.40
2022-08-26T19:05:23.572Z,40.15
2022-08-26T19:07:51.671Z,11.20
2022-08-26T19:10:18.985Z,10.23
2022-08-26T19:12:46.575Z,15.90
2022-08-26T19:15:19.654Z,10.80
2022-08-26T19:17:47.779Z,7.82
2022-08-26T19:20:15.223Z,5.93
2022-08-26T19:22:42.483Z,7.03
2022-08-26T19:25:10.209Z,4.97
2022-08-26T19:27:37.612Z,8.27
2022-08-26T19:30:06.873Z,8.30
2022-08-26T19:32:34.135Z,5.38
2022-08-26T19:35:01.417Z,23.02
2022-08-26T19:37:28.695Z,9.95
2022-08-26T19:39:56.490Z,12.77
2022-08-26T19:42:23.813Z,8.52
2022-08-26T19:45:24.382Z,8.52
2022-08-26T19:47:53.483Z,6.55
2022-08-26T19:50:22.064Z,6.07
2022-08-26T19:52:49.621Z,7.70
2022-08-26T19:55:18.554Z,6.78
2022-08-26T19:57:45.851Z,6.90
2022-08-26T20:00:17.982Z,4.03
2022-08-26T20:02:45.609Z,8.50
2022-08-26T20:05:15.102Z,9.63
2022-08-26T20:07:42.425Z,12.82
2022-08-26T20:10:12.891Z,10.45
2022-08-26T20:12:41.648Z,7.85
2022-08-26T20:15:13.402Z,5.45
2022-08-26T20:17:41.345Z,10.77
2022-08-26T20:20:33.484Z,8.13
2022-08-26T20:23:03.598Z,5.78
2022-08-26T20:25:32.637Z,6.28
2022-08-26T20:28:00.785Z,6.72
2022-08-26T20:30:28.536Z,4.60
2022-08-26T20:32:56.256Z,6.15
2022-08-26T20:35:23.980Z,6.78
2022-08-26T20:37:51.302Z,6.20
2022-08-26T20:40:18.796Z,3.50
2022-08-26T20:42:46.110Z,5.60
2022-08-26T20:45:13.369Z,3.90
2022-08-26T20:47:41.687Z,6.88
2022-08-26T20:50:09.299Z,6.93
2022-08-26T20:52:39.599Z,6.03
2022-08-26T20:55:07.369Z,4.20
2022-08-26T20:57:34.689Z,5.32
2022-08-26T21:00:02.239Z,3.83
2022-08-26T21:02:29.662Z,5.40
2022-08-26T21:04:57.559Z,2.38
2022-08-26T21:07:24.928Z,3.80
2022-08-26T21:09:52.204Z,4.28
2022-08-26T21:12:19.760Z,2.55
2022-08-26T21:14:49.685Z,4.25
2022-08-26T21:17:17.493Z,3.55
2022-08-26T21:19:44.879Z,2.47
2022-08-26T21:22:12.352Z,3.25
2022-08-26T21:24:39.847Z,5.22
2022-08-26T21:27:07.182Z,2.60
2022-08-26T21:29:35.675Z,3.45
2022-08-26T21:32:03.592Z,2.42
2022-08-26T21:34:30.923Z,2.45
2022-08-26T21:36:58.607Z,3.65
2022-08-26T21:39:25.900Z,2.63
2022-08-26T21:41:53.181Z,3.35
2022-08-26T21:44:20.482Z,4.95
2022-08-26T21:46:49.015Z,3.03
2022-08-26T21:49:16.892Z,4.05
2022-08-26T21:51:47.166Z,2.60
2022-08-26T21:54:15.156Z,2.53
2022-08-26T21:56:46.618Z,2.60
2022-08-26T21:59:16.210Z,2.08
2022-08-26T22:01:43.968Z,2.28
2022-08-26T22:04:11.555Z,3.63
2022-08-26T22:06:50.147Z,2.20
2022-08-26T22:09:21.828Z,2.70
2022-08-26T22:11:49.467Z,1.33
2022-08-26T22:14:17.828Z,3.42
2022-08-26T22:16:50.287Z,2.75
2022-08-26T22:19:19.874Z,1.85
2022-08-26T22:21:51.973Z,2.67
2022-08-26T22:24:21.758Z,2.08
2022-08-26T22:26:49.594Z,2.30
2022-08-26T22:29:18.618Z,2.10
2022-08-26T22:31:46.082Z,2.25
2022-08-26T22:34:20.503Z,1.95
2022-08-26T22:39:18.980Z,1.83
2022-08-26T22:41:48.717Z,2.97
2022-08-26T22:44:17.894Z,2.47
2022-08-26T22:46:46.600Z,2.75
2022-08-26T22:49:18.051Z,2.20
2022-08-26T22:51:46.474Z,2.33
2022-08-26T22:54:14.647Z,2.20
2022-08-26T22:56:43.368Z,2.22
2022-08-26T22:59:11.210Z,2.10
2022-08-26T23:01:42.325Z,2.58
2022-08-26T23:04:11.009Z,2.70
2022-08-26T23:06:41.102Z,2.80
2022-08-26T23:09:09.709Z,2.47
2022-08-26T23:11:39.618Z,1.98
2022-08-26T23:14:10.196Z,1.92
2022-08-26T23:16:41.518Z,2.70
2022-08-26T23:19:11.325Z,1.48
2022-08-26T23:21:39.097Z,2.17
2022-08-26T23:24:07.267Z,2.97
2022-08-26T23:26:35.894Z,1.73
2022-08-26T23:29:03.638Z,2.72
2022-08-26T23:31:31.212Z,2.10
2022-08-26T23:34:17.298Z,2.40
2022-08-26T23:36:45.712Z,2.95
2022-08-26T23:39:14.662Z,2.65
2022-08-26T23:41:42.566Z,2.05
2022-08-26T23:44:10.083Z,2.50
2022-08-26T23:46:37.431Z,2.30
2022-08-26T23:49:05.263Z,2.92
2022-08-26T23:51:51.717Z,1.60
2022-08-26T23:54:19.656Z,2.28
2022-08-26T23:56:47.005Z,2.20
2022-08-26T23:59:15.179Z,1.50
